createdAt,value
2022-11-27T00:01:31.999Z,21.20
2022-11-27T00:03:59.907Z,23.40
2022-11-27T00:06:29.367Z,22.70
2022-11-27T00:08:58.643Z,23.80
2022-11-27T00:11:27.876Z,23.10
2022-11-27T00:13:56.268Z,20.70
2022-11-27T00:16:25.270Z,21.20
2022-11-27T00:18:53.189Z,20.40
2022-11-27T00:21:24.166Z,21.40
2022-11-27T00:23:53.581Z,22.60
2022-11-27T00:26:22.229Z,20.90
2022-11-27T00:28:50.231Z,21.40
2022-11-27T00:31:27.271Z,20.00
2022-11-27T00:33:56.578Z,21.10
2022-11-27T00:36:25.151Z,20.70
2022-11-27T00:38:52.945Z,19.60
2022-11-27T00:41:23.638Z,20.10
2022-11-27T00:43:51.869Z,21.10
2022-11-27T00:46:28.805Z,20.10
2022-11-27T00:49:01.504Z,16.90
2022-11-27T00:51:30.163Z,16.70
2022-11-27T00:53:58.358Z,18.00
2022-11-27T00:56:31.526Z,19.10
2022-11-27T00:58:59.291Z,19.80
2022-11-27T01:01:28.892Z,19.30
2022-11-27T01:03:58.556Z,17.90
2022-11-27T01:06:27.465Z,18.50
2022-11-27T01:08:55.339Z,18.50
2022-11-27T01:11:28.237Z,18.80
2022-11-27T01:13:59.536Z,17.90
2022-11-27T01:16:29.466Z,18.20
2022-11-27T01:18:58.700Z,16.70
2022-11-27T01:21:28.749Z,18.00
2022-11-27T01:23:56.363Z,18.20
2022-11-27T01:26:24.901Z,17.50
2022-11-27T01:28:54.560Z,16.10
2022-11-27T01:31:24.654Z,17.50
2022-11-27T01:33:54.764Z,17.10
2022-11-27T01:36:23.101Z,17.90
2022-11-27T01:38:50.757Z,17.80
2022-11-27T01:41:27.739Z,17.10
2022-11-27T01:44:03.961Z,16.30
2022-11-27T01:46:34.659Z,17.60
2022-11-27T01:49:11.375Z,17.90
2022-11-27T01:51:46.942Z,16.90
2022-11-27T01:54:16.793Z,16.10
2022-11-27T01:56:48.714Z,17.00
2022-11-27T01:59:18.222Z,17.20
2022-11-27T02:01:45.885Z,15.40
2022-11-27T02:04:13.687Z,17.80
2022-11-27T02:06:41.311Z,16.50
2022-11-27T02:09:08.979Z,17.10
2022-11-27T02:12:02.069Z,18.20
2022-11-27T02:15:03.524Z,16.70
2022-11-27T02:17:57.311Z,17.50
2022-11-27T02:20:47.442Z,16.10
2022-11-27T02:23:40.974Z,17.60
2022-11-27T02:26:14.760Z,17.80
2022-11-27T02:29:03.955Z,17.60
2022-11-27T02:31:41.495Z,15.70
2022-11-27T02:34:25.064Z,16.70
2022-11-27T02:37:33.276Z,17.00
2022-11-27T02:40:07.177Z,15.30
2022-11-27T02:42:43.866Z,15.60
2022-11-27T02:45:18.899Z,17.90
2022-11-27T02:47:49.063Z,16.20
2022-11-27T02:50:20.289Z,15.40
2022-11-27T02:52:51.870Z,16.40
2022-11-27T02:55:24.924Z,17.00
2022-11-27T02:57:56.592Z,16.70
2022-11-27T03:02:59.729Z,16.40
2022-11-27T03:05:32.603Z,16.80
2022-11-27T03:08:06.515Z,16.00
2022-11-27T03:10:43.324Z,17.10
2022-11-27T03:13:11.225Z,17.00
2022-11-27T03:15:54.762Z,16.30
2022-11-27T03:18:51.880Z,17.20
2022-11-27T03:21:51.856Z,16.10
2022-11-27T03:24:19.784Z,14.70
2022-11-27T03:26:47.853Z,16.00
2022-11-27T03:29:20.587Z,17.40
2022-11-27T03:31:49.271Z,18.10
2022-11-27T03:34:17.365Z,16.90
2022-11-27T03:36:45.825Z,15.90
2022-11-27T03:39:13.918Z,17.70
2022-11-27T03:41:53.570Z,17.10
2022-11-27T03:44:55.200Z,17.90
2022-11-27T03:47:46.469Z,18.30
2022-11-27T03:50:31.985Z,18.10
2022-11-27T03:53:05.337Z,17.80
2022-11-27T03:56:09.961Z,17.30
2022-11-27T03:58:43.213Z,17.10
2022-11-27T04:01:14.543Z,17.30
2022-11-27T04:03:42.327Z,16.60
2022-11-27T04:06:09.950Z,18.00
2022-11-27T04:08:38.952Z,16.50
2022-11-27T04:11:06.898Z,17.00
2022-11-27T04:13:34.653Z,16.60
2022-11-27T04:16:03.134Z,17.30
2022-11-27T04:18:30.984Z,16.40
2022-11-27T04:20:58.645Z,17.60
2022-11-27T04:23:26.499Z,18.20
2022-11-27T04:25:54.288Z,17.10
2022-11-27T04:28:21.926Z,17.20
2022-11-27T04:30:53.815Z,16.70
2022-11-27T04:33:21.997Z,16.60
2022-11-27T04:35:50.691Z,17.70
2022-11-27T04:38:19.780Z,17.90
2022-11-27T04:40:47.434Z,17.50
2022-11-27T04:43:15.076Z,17.80
2022-11-27T04:45:42.661Z,17.60
2022-11-27T04:48:10.266Z,17.70
2022-11-27T04:50:38.236Z,17.30
2022-11-27T04:53:05.895Z,16.70
2022-11-27T04:55:35.525Z,17.70
2022-11-27T04:58:03.482Z,16.70
2022-11-27T05:00:31.275Z,18.00
2022-11-27T05:02:59.062Z,17.10
2022-11-27T05:05:26.798Z,18.50
2022-11-27T05:07:54.505Z,17.10
2022-11-27T05:10:22.206Z,18.40
2022-11-27T05:12:49.861Z,16.80
2022-11-27T05:15:17.551Z,18.30
2022-11-27T05:17:45.164Z,18.10
2022-11-27T05:20:12.806Z,18.70
2022-11-27T05:22:40.428Z,17.60
2022-11-27T05:25:08.349Z,18.60
2022-11-27T05:27:35.979Z,18.40
2022-11-27T05:30:03.893Z,18.50
2022-11-27T05:32:31.607Z,18.20
2022-11-27T05:34:59.169Z,18.30
2022-11-27T05:37:26.777Z,18.70
2022-11-27T05:39:54.567Z,18.10
2022-11-27T05:42:22.158Z,20.10
2022-11-27T05:44:53.898Z,19.50
2022-11-27T05:47:24.454Z,20.20
2022-11-27T05:49:52.053Z,19.60
2022-11-27T05:52:19.710Z,19.60
2022-11-27T05:54:47.338Z,19.00
2022-11-27T05:57:14.979Z,20.40
2022-11-27T05:59:42.623Z,21.90
2022-11-27T06:02:11.962Z,21.20
2022-11-27T06:04:42.882Z,19.60
2022-11-27T06:07:10.559Z,21.20
2022-11-27T06:09:38.596Z,22.70
2022-11-27T06:12:06.571Z,22.50
2022-11-27T06:14:34.286Z,19.70
2022-11-27T06:17:03.561Z,20.40
2022-11-27T06:19:31.145Z,20.50
2022-11-27T06:21:58.813Z,20.80
2022-11-27T06:24:26.696Z,21.70
2022-11-27T06:26:54.289Z,18.00
2022-11-27T06:29:21.980Z,20.10
2022-11-27T06:31:49.721Z,24.50
2022-11-27T06:34:17.337Z,22.90
2022-11-27T06:36:45.001Z,23.30
2022-11-27T06:39:12.663Z,21.80
2022-11-27T06:41:40.415Z,20.50
2022-11-27T06:44:10.132Z,20.50
2022-11-27T06:46:37.740Z,21.00
2022-11-27T06:49:05.379Z,22.10
2022-11-27T06:51:32.999Z,21.60
2022-11-27T06:54:01.701Z,21.10
2022-11-27T06:56:31.464Z,21.90
2022-11-27T06:59:00.713Z,26.20
2022-11-27T07:01:30.714Z,22.50
2022-11-27T07:03:59.069Z,27.00
2022-11-27T07:06:28.138Z,22.20
2022-11-27T07:08:56.117Z,19.80
2022-11-27T07:11:26.754Z,20.90
2022-11-27T07:13:56.798Z,19.00
2022-11-27T07:16:25.541Z,18.90
2022-11-27T07:18:55.693Z,18.90
2022-11-27T07:21:23.965Z,23.30
2022-11-27T07:23:51.698Z,19.80
2022-11-27T07:26:27.753Z,19.70
2022-11-27T07:28:56.267Z,21.00
2022-11-27T07:31:27.347Z,20.30
2022-11-27T07:33:55.716Z,17.80
2022-11-27T07:36:26.661Z,21.50
2022-11-27T07:38:54.668Z,20.40
2022-11-27T07:41:22.295Z,19.00
2022-11-27T07:43:50.244Z,20.00
2022-11-27T07:46:21.652Z,17.00
2022-11-27T07:48:49.720Z,18.40
2022-11-27T07:51:20.143Z,17.60
2022-11-27T07:53:48.098Z,16.80
2022-11-27T07:56:16.274Z,18.50
2022-11-27T07:58:44.222Z,18.10
2022-11-27T08:01:15.161Z,18.10
2022-11-27T08:03:43.032Z,16.70
2022-11-27T08:06:16.876Z,15.20
2022-11-27T08:08:44.672Z,18.40
2022-11-27T08:11:19.533Z,17.80
2022-11-27T08:13:47.934Z,16.30
2022-11-27T08:16:16.225Z,18.20
2022-11-27T08:18:44.018Z,18.50
2022-11-27T08:21:12.019Z,18.20
2022-11-27T08:23:40.174Z,19.10
2022-11-27T08:26:10.023Z,17.00
2022-11-27T08:28:39.373Z,16.80
2022-11-27T08:31:09.749Z,15.90
2022-11-27T08:33:37.562Z,15.80
2022-11-27T08:36:08.493Z,14.40
2022-11-27T08:38:37.429Z,18.30
2022-11-27T08:41:07.157Z,14.30
2022-11-27T08:43:35.792Z,16.70
2022-11-27T08:46:05.444Z,16.20
2022-11-27T08:48:33.778Z,17.30
2022-11-27T08:51:06.900Z,20.30
2022-11-27T08:53:35.506Z,19.80
2022-11-27T08:56:18.045Z,15.60
2022-11-27T08:58:46.533Z,15.50
2022-11-27T09:01:20.335Z,15.60
2022-11-27T09:03:48.850Z,16.20
2022-11-27T09:06:19.258Z,13.30
2022-11-27T09:08:47.162Z,14.60
2022-11-27T09:11:17.069Z,13.70
2022-11-27T09:13:45.025Z,15.50
2022-11-27T09:16:15.575Z,14.90
2022-11-27T09:18:51.869Z,13.90
2022-11-27T09:21:21.760Z,15.80
2022-11-27T09:23:55.904Z,14.00
2022-11-27T09:26:24.253Z,16.90
2022-11-27T09:28:53.501Z,17.30
2022-11-27T09:31:22.318Z,16.50
2022-11-27T09:33:50.655Z,15.40
2022-11-27T09:36:22.881Z,17.70
2022-11-27T09:38:51.066Z,18.10
2022-11-27T09:41:24.559Z,20.60
2022-11-27T09:43:58.374Z,19.90
2022-11-27T09:46:39.922Z,18.70
2022-11-27T09:49:13.677Z,16.20
2022-11-27T09:51:48.275Z,17.50
2022-11-27T09:54:23.527Z,17.10
2022-11-27T09:56:53.301Z,24.90
2022-11-27T09:59:37.010Z,20.70
2022-11-27T10:02:16.269Z,18.60
2022-11-27T10:05:05.662Z,20.20
2022-11-27T10:07:50.789Z,17.30
2022-11-27T10:10:47.534Z,17.70
2022-11-27T10:13:21.168Z,16.50
2022-11-27T10:15:56.885Z,14.60
2022-11-27T10:18:39.849Z,15.50
2022-11-27T10:21:27.409Z,16.90
2022-11-27T10:24:00.771Z,17.30
2022-11-27T10:26:42.017Z,16.00
2022-11-27T10:29:24.276Z,16.20
2022-11-27T10:31:56.247Z,16.00
2022-11-27T10:35:01.561Z,16.00
2022-11-27T10:37:35.375Z,16.80
2022-11-27T10:40:08.479Z,16.60
2022-11-27T10:43:05.208Z,17.70
2022-11-27T10:45:46.383Z,15.70
2022-11-27T10:48:14.918Z,16.10
2022-11-27T10:50:43.673Z,14.70
2022-11-27T10:53:35.183Z,18.10
2022-11-27T10:56:12.039Z,15.50
2022-11-27T10:58:54.736Z,17.50
2022-11-27T11:01:24.863Z,18.10
2022-11-27T11:04:31.328Z,20.40
2022-11-27T11:06:57.558Z,19.90
2022-11-27T11:09:31.308Z,18.70
2022-11-27T11:12:09.642Z,17.10
2022-11-27T11:14:37.283Z,17.60
2022-11-27T11:17:15.852Z,18.00
2022-11-27T11:19:43.502Z,15.40
2022-11-27T11:22:16.272Z,16.20
2022-11-27T11:24:50.241Z,21.70
2022-11-27T11:27:28.309Z,19.00
2022-11-27T11:30:02.574Z,17.80
2022-11-27T11:32:34.855Z,18.20
2022-11-27T11:35:10.696Z,17.50
2022-11-27T11:37:45.210Z,16.10
2022-11-27T11:40:16.078Z,18.00
2022-11-27T11:42:58.785Z,16.60
2022-11-27T11:45:31.354Z,16.80
2022-11-27T11:48:04.026Z,17.30
2022-11-27T11:50:44.197Z,17.30
2022-11-27T11:53:34.904Z,18.00
2022-11-27T11:56:14.344Z,17.30
2022-11-27T11:58:58.153Z,17.10
2022-11-27T12:02:02.627Z,16.30
2022-11-27T12:04:51.766Z,16.50
2022-11-27T12:07:41.274Z,16.40
2022-11-27T12:10:33.203Z,16.20
2022-11-27T12:13:03.453Z,15.40
2022-11-27T12:15:38.601Z,16.30
2022-11-27T12:18:26.245Z,16.40
2022-11-27T12:21:06.046Z,13.90
2022-11-27T12:24:01.033Z,13.60
2022-11-27T12:26:54.690Z,14.10
2022-11-27T12:29:28.063Z,13.50
2022-11-27T12:32:08.004Z,14.30
2022-11-27T12:34:53.946Z,13.50
2022-11-27T12:37:35.972Z,13.70
2022-11-27T12:40:47.602Z,12.80
2022-11-27T12:43:25.731Z,10.90
2022-11-27T12:46:09.744Z,11.40
2022-11-27T12:48:55.661Z,11.10
2022-11-27T12:51:41.173Z,10.90
2022-11-27T12:54:29.617Z,13.10
2022-11-27T12:57:02.229Z,11.80
2022-11-27T12:59:52.400Z,13.00
2022-11-27T13:02:36.192Z,12.10
2022-11-27T13:05:14.252Z,11.80
2022-11-27T13:07:49.309Z,12.20
2022-11-27T13:10:26.034Z,12.80
2022-11-27T13:12:56.638Z,12.40
2022-11-27T13:15:31.155Z,12.20
2022-11-27T13:18:07.734Z,11.40
2022-11-27T13:20:40.197Z,11.00
2022-11-27T13:23:07.859Z,11.80
2022-11-27T13:25:43.652Z,10.80
2022-11-27T13:28:27.723Z,12.10
2022-11-27T13:30:59.866Z,11.20
2022-11-27T13:33:41.958Z,10.50
2022-11-27T13:36:25.412Z,12.70
2022-11-27T13:38:56.894Z,11.80
2022-11-27T13:41:39.680Z,11.90
2022-11-27T13:44:42.140Z,10.70
2022-11-27T13:47:16.406Z,12.50
2022-11-27T13:49:44.273Z,15.00
2022-11-27T13:52:16.474Z,14.70
2022-11-27T13:54:54.894Z,14.20
2022-11-27T13:57:23.478Z,10.20
2022-11-27T14:00:09.578Z,10.10
2022-11-27T14:02:47.550Z,10.10
2022-11-27T14:05:20.985Z,10.80
2022-11-27T14:07:52.365Z,10.60
2022-11-27T14:10:26.480Z,10.40
2022-11-27T14:12:58.518Z,11.60
2022-11-27T14:15:27.669Z,10.70
2022-11-27T14:18:10.720Z,11.50
2022-11-27T14:20:51.544Z,10.80
2022-11-27T14:23:31.100Z,8.80
2022-11-27T14:26:15.394Z,9.90
2022-11-27T14:28:48.354Z,10.60
2022-11-27T14:31:35.394Z,10.00
2022-11-27T14:34:23.241Z,12.10
2022-11-27T14:36:54.231Z,11.40
2022-11-27T14:39:25.919Z,11.10
2022-11-27T14:44:31.847Z,8.40
2022-11-27T14:47:03.406Z,8.50
2022-11-27T14:52:08.644Z,8.10
2022-11-27T14:54:39.081Z,7.70
2022-11-27T14:57:07.609Z,9.00
2022-11-27T14:59:35.204Z,10.20
2022-11-27T15:02:11.923Z,8.00
2022-11-27T15:04:46.189Z,9.70
2022-11-27T15:07:27.651Z,9.00
2022-11-27T15:09:57.235Z,8.70
2022-11-27T15:12:29.633Z,9.50
2022-11-27T15:14:57.208Z,8.90
2022-11-27T15:17:30.570Z,8.90
2022-11-27T15:20:00.299Z,8.30
2022-11-27T15:22:28.109Z,11.00
2022-11-27T15:25:04.890Z,15.70
2022-11-27T15:27:44.187Z,9.70
2022-11-27T15:30:17.570Z,9.40
2022-11-27T15:32:47.999Z,9.50
2022-11-27T15:35:30.963Z,9.80
2022-11-27T15:38:00.257Z,9.80
2022-11-27T15:40:40.050Z,9.70
2022-11-27T15:43:16.001Z,9.10
2022-11-27T15:45:45.957Z,9.20
2022-11-27T15:48:19.016Z,9.30
2022-11-27T15:50:51.450Z,13.10
2022-11-27T15:53:19.681Z,12.10
2022-11-27T15:55:47.317Z,11.30
2022-11-27T15:58:15.722Z,12.60
2022-11-27T16:00:43.354Z,11.70
2022-11-27T16:03:11.069Z,18.40
2022-11-27T16:05:39.144Z,11.00
2022-11-27T16:08:06.910Z,11.50
2022-11-27T16:10:34.610Z,11.80
2022-11-27T16:13:02.205Z,11.80
2022-11-27T16:15:32.990Z,11.20
2022-11-27T16:18:02.274Z,12.20
2022-11-27T16:20:29.981Z,10.60
2022-11-27T16:22:57.697Z,11.60
2022-11-27T16:25:25.289Z,10.50
2022-11-27T16:27:56.710Z,11.60
2022-11-27T16:30:27.112Z,10.40
2022-11-27T16:32:54.724Z,8.90
2022-11-27T16:35:23.758Z,9.80
2022-11-27T16:37:51.407Z,13.90
2022-11-27T16:40:19.420Z,14.70
2022-11-27T16:42:47.039Z,18.70
2022-11-27T16:45:15.110Z,12.70
2022-11-27T16:47:42.844Z,11.20
2022-11-27T16:50:10.619Z,10.90
2022-11-27T16:52:38.251Z,14.10
2022-11-27T16:55:06.273Z,11.20
2022-11-27T16:57:33.852Z,10.20
2022-11-27T17:00:01.611Z,12.40
2022-11-27T17:02:29.367Z,13.20
2022-11-27T17:04:57.305Z,12.00
2022-11-27T17:07:25.187Z,14.70
2022-11-27T17:09:52.833Z,11.80
2022-11-27T17:12:20.661Z,12.00
2022-11-27T17:14:51.328Z,11.90
2022-11-27T17:17:19.024Z,10.40
2022-11-27T17:19:46.749Z,13.40
2022-11-27T17:22:14.631Z,18.90
2022-11-27T17:24:42.301Z,14.30
2022-11-27T17:27:09.925Z,12.00
2022-11-27T17:29:39.119Z,11.50
2022-11-27T17:32:06.912Z,11.20
2022-11-27T17:34:34.636Z,11.50
2022-11-27T17:37:02.313Z,10.50
2022-11-27T17:39:29.932Z,9.40
2022-11-27T17:41:57.530Z,9.90
2022-11-27T17:44:25.206Z,10.90
2022-11-27T17:46:52.787Z,10.70
2022-11-27T17:49:21.116Z,11.10
2022-11-27T17:51:48.763Z,10.50
2022-11-27T17:54:16.365Z,9.10
2022-11-27T17:56:44.022Z,10.80
2022-11-27T17:59:11.780Z,9.90
2022-11-27T18:01:39.485Z,10.30
2022-11-27T18:04:09.653Z,10.20
2022-11-27T18:06:37.275Z,15.80
2022-11-27T18:09:05.075Z,15.50
2022-11-27T18:11:33.043Z,11.40
2022-11-27T18:14:00.935Z,10.70
2022-11-27T18:16:34.376Z,10.40
2022-11-27T18:19:05.466Z,10.40
2022-11-27T18:21:33.633Z,10.50
2022-11-27T18:27:11.119Z,10.60
2022-11-27T18:32:29.491Z,10.00
2022-11-27T18:34:57.097Z,9.30
2022-11-27T18:37:24.906Z,10.50
2022-11-27T18:39:52.623Z,10.80
2022-11-27T18:42:20.233Z,12.50
2022-11-27T18:44:47.873Z,11.80
2022-11-27T18:47:16.250Z,11.50
2022-11-27T18:49:45.218Z,11.60
2022-11-27T18:52:13.533Z,12.50
2022-11-27T18:54:41.213Z,11.40
2022-11-27T18:57:08.881Z,11.90
2022-11-27T18:59:36.755Z,13.40
2022-11-27T19:02:07.416Z,13.20
2022-11-27T19:04:36.242Z,13.90
2022-11-27T19:07:04.114Z,13.60
2022-11-27T19:09:31.860Z,12.90
2022-11-27T19:11:59.556Z,12.70
2022-11-27T19:14:27.218Z,12.90
2022-11-27T19:16:55.069Z,13.60
2022-11-27T19:22:12.164Z,14.00
2022-11-27T19:24:39.770Z,10.70
2022-11-27T19:27:07.399Z,13.40
2022-11-27T19:29:36.277Z,13.30
2022-11-27T19:32:04.050Z,13.80
2022-11-27T19:34:31.818Z,13.60
2022-11-27T19:36:59.427Z,16.40
2022-11-27T19:39:27.012Z,15.20
2022-11-27T19:41:54.758Z,11.40
2022-11-27T19:44:22.336Z,14.30
2022-11-27T19:46:50.053Z,14.00
2022-11-27T19:49:18.175Z,13.40
2022-11-27T19:51:46.404Z,14.10
2022-11-27T19:54:16.248Z,14.60
2022-11-27T19:56:44.147Z,14.70
2022-11-27T19:59:13.024Z,14.40
2022-11-27T20:01:41.596Z,12.10
2022-11-27T20:04:12.836Z,13.80
2022-11-27T20:06:40.816Z,12.30
2022-11-27T20:09:08.773Z,11.70
2022-11-27T20:11:36.923Z,12.10
2022-11-27T20:14:06.059Z,12.50
2022-11-27T20:16:35.371Z,12.30
2022-11-27T20:19:04.871Z,12.60
2022-11-27T20:21:32.540Z,11.90
2022-11-27T20:24:01.613Z,12.20
2022-11-27T20:26:29.376Z,11.10
2022-11-27T20:28:57.748Z,11.50
2022-11-27T20:31:28.973Z,11.20
2022-11-27T20:33:59.516Z,12.70
2022-11-27T20:36:28.308Z,12.20
2022-11-27T20:38:58.613Z,11.10
2022-11-27T20:41:27.076Z,13.90
2022-11-27T20:43:57.744Z,14.70
2022-11-27T20:46:27.790Z,14.50
2022-11-27T20:48:56.011Z,11.80
2022-11-27T20:51:27.279Z,12.90
2022-11-27T20:53:57.314Z,14.20
2022-11-27T20:56:25.911Z,14.30
2022-11-27T20:58:54.342Z,12.30
2022-11-27T21:01:25.048Z,12.80
2022-11-27T21:03:54.599Z,11.00
2022-11-27T21:06:25.148Z,12.80
2022-11-27T21:08:52.845Z,11.80
2022-11-27T21:11:23.498Z,13.00
2022-11-27T21:14:02.703Z,12.00
2022-11-27T21:16:32.785Z,11.90
2022-11-27T21:19:06.367Z,13.00
2022-11-27T21:21:34.595Z,12.70
2022-11-27T21:24:02.305Z,11.80
2022-11-27T21:26:30.065Z,12.10
2022-11-27T21:28:57.783Z,11.80
2022-11-27T21:31:27.143Z,12.20
2022-11-27T21:33:57.104Z,13.40
2022-11-27T21:36:28.169Z,11.00
2022-11-27T21:38:58.173Z,11.50
2022-11-27T21:41:26.723Z,12.90
2022-11-27T21:44:00.309Z,13.00
2022-11-27T21:46:29.174Z,12.80
2022-11-27T21:49:00.293Z,12.80
2022-11-27T21:51:29.399Z,12.70
2022-11-27T21:53:58.697Z,13.00
2022-11-27T21:56:28.460Z,14.90
2022-11-27T21:58:56.395Z,12.30
2022-11-27T22:01:25.530Z,14.10
2022-11-27T22:03:54.049Z,15.90
2022-11-27T22:06:23.207Z,15.30
2022-11-27T22:08:59.015Z,13.00
2022-11-27T22:11:29.070Z,12.80
2022-11-27T22:13:58.488Z,13.40
2022-11-27T22:16:31.770Z,14.80
2022-11-27T22:19:00.240Z,13.00
2022-11-27T22:21:30.222Z,13.30
2022-11-27T22:23:58.710Z,12.70
2022-11-27T22:26:27.110Z,13.50
2022-11-27T22:28:55.101Z,12.60
2022-11-27T22:31:25.435Z,12.70
2022-11-27T22:33:53.096Z,13.40
2022-11-27T22:36:25.208Z,12.40
2022-11-27T22:38:55.264Z,12.50
2022-11-27T22:41:25.031Z,15.10
2022-11-27T22:43:52.931Z,13.90
2022-11-27T22:46:23.766Z,12.50
2022-11-27T22:48:59.231Z,12.40
2022-11-27T22:51:28.490Z,13.40
2022-11-27T22:53:56.214Z,13.60
2022-11-27T22:56:23.968Z,12.50
2022-11-27T22:59:06.035Z,12.60
2022-11-27T23:01:39.728Z,11.60
2022-11-27T23:04:07.838Z,11.30
2022-11-27T23:06:35.872Z,13.10
2022-11-27T23:09:03.538Z,12.00
2022-11-27T23:11:31.101Z,12.80
2022-11-27T23:13:58.831Z,12.80
2022-11-27T23:16:26.529Z,12.80
2022-11-27T23:18:54.225Z,12.10
2022-11-27T23:21:23.659Z,13.70
2022-11-27T23:23:51.479Z,12.90
2022-11-27T23:26:23.845Z,10.90
2022-11-27T23:28:53.776Z,12.30
2022-11-27T23:31:31.889Z,11.60
2022-11-27T23:34:01.999Z,12.70
2022-11-27T23:36:31.842Z,12.50
2022-11-27T23:39:00.495Z,12.00
2022-11-27T23:41:28.471Z,11.80
2022-11-27T23:43:56.476Z,11.30
2022-11-27T23:46:27.118Z,12.70
2022-11-27T23:48:57.011Z,12.40
2022-11-27T23:51:27.588Z,12.90
2022-11-27T23:53:55.514Z,11.50
2022-11-27T23:56:25.855Z,11.40
2022-11-27T23:58:54.718Z,11.00
